Time;durP1;ratioP1;P1;durP2;ratioP2;P2;SDS_P1;SDS_P2;PMS_P1;PMS_P2;Temp;Humidity;BMP_temperature;BMP_pressure;BME280_temperature;BME280_humidity;BME280_pressure;Samples;Min_cycle;Max_cycle;Signal;HPM_P1;HPM_P2
2022/04/30 14:50:40;;;;;;;5.95;2.58;;;11.60;99.90;;;;;;5091891;27;20427;-78
2022/04/30 14:53:05;;;;;;;8.98;3.10;;;11.50;99.90;;;;;;5073785;28;20105;-80
2022/04/30 14:55:31;;;;;;;5.53;2.97;;;11.60;99.90;;;;;;5063707;28;20083;-76
2022/04/30 14:57:58;;;;;;;8.18;3.17;;;10.20;99.90;;;;;;5079882;28;20109;-80
2022/04/30 15:00:29;;;;;;;8.23;3.17;;;11.60;99.90;;;;;;5040344;28;20110;-79
2022/04/30 15:02:55;;;;;;;5.93;3.17;;;11.60;99.90;;;;;;5087757;28;20040;-80
2022/04/30 15:05:20;;;;;;;6.93;3.33;;;11.70;99.90;;;;;;5088093;28;20498;-81
2022/04/30 15:07:47;;;;;;;9.43;3.00;;;11.70;99.90;;;;;;5087023;28;20048;-79
2022/04/30 15:10:13;;;;;;;4.05;2.83;;;11.70;99.90;;;;;;5070324;28;20079;-79
2022/04/30 15:12:39;;;;;;;5.45;3.00;;;11.70;99.90;;;;;;5086171;28;20079;-80
2022/04/30 15:15:05;;;;;;;5.32;3.20;;;11.80;99.90;;;;;;5086813;28;20053;-80
2022/04/30 15:17:31;;;;;;;5.22;2.90;;;11.80;99.90;;;;;;5069182;28;20040;-81
2022/04/30 15:19:59;;;;;;;5.28;2.67;;;11.90;99.90;;;;;;5087164;28;20050;-81
2022/04/30 15:22:25;;;;;;;4.57;2.67;;;11.90;99.90;;;;;;5068658;28;20048;-81
2022/04/30 15:24:51;;;;;;;5.03;2.33;;;12.00;99.90;;;;;;5070544;28;20080;-80
2022/04/30 15:27:16;;;;;;;5.25;2.75;;;12.00;99.90;;;;;;5089398;28;20044;-81
2022/04/30 15:29:42;;;;;;;3.00;2.58;;;12.00;99.90;;;;;;5089588;28;20037;-81
2022/04/30 15:32:09;;;;;;;3.90;2.50;;;13.00;99.90;;;;;;5090252;28;20048;-80
2022/04/30 15:34:36;;;;;;;5.82;2.83;;;12.10;99.90;;;;;;5088754;28;20048;-80
2022/04/30 15:37:02;;;;;;;3.30;2.55;;;12.20;99.90;;;;;;5090029;28;20123;-81
2022/04/30 15:39:28;;;;;;;5.18;2.60;;;12.20;99.90;;;;;;5088084;28;20127;-81
2022/04/30 15:41:55;;;;;;;4.97;2.13;;;13.40;99.90;;;;;;5087926;28;20052;-81
2022/04/30 15:44:21;;;;;;;5.45;2.35;;;12.90;99.90;;;;;;5087251;28;20067;-81
2022/04/30 15:52:20;;;;;;;4.47;2.67;;;12.10;99.90;;;;;;5085001;28;20091;-83
2022/04/30 15:54:46;;;;;;;3.22;1.92;;;12.10;99.90;;;;;;5084278;28;20050;-82
2022/04/30 15:57:12;;;;;;;2.45;1.65;;;12.10;99.90;;;;;;5067312;28;20048;-81
2022/04/30 15:59:38;;;;;;;3.10;2.20;;;11.60;99.90;;;;;;5084802;28;20048;-81
2022/04/30 16:02:05;;;;;;;2.95;2.08;;;12.00;99.90;;;;;;5053796;28;20089;-82
2022/04/30 16:04:34;;;;;;;4.05;1.98;;;12.30;99.90;;;;;;5070455;28;20036;-81
2022/04/30 16:07:02;;;;;;;4.35;2.03;;;12.00;99.90;;;;;;5074567;28;20051;-81
2022/04/30 16:09:28;;;;;;;5.40;2.38;;;12.00;99.90;;;;;;5077717;28;20508;-79
2022/04/30 16:11:53;;;;;;;4.00;2.30;;;12.00;99.90;;;;;;5073763;28;20037;-80
2022/04/30 16:14:19;;;;;;;6.05;2.50;;;11.90;99.90;;;;;;5072756;28;20454;-79
2022/04/30 16:16:45;;;;;;;4.10;1.98;;;12.00;99.90;;;;;;5071617;28;20125;-80
2022/04/30 16:19:10;;;;;;;2.88;2.10;;;12.00;99.90;;;;;;5038383;28;20053;-80
2022/04/30 16:21:36;;;;;;;6.32;2.72;;;12.00;99.90;;;;;;5073623;28;20048;-80
2022/04/30 16:24:03;;;;;;;2.58;2.00;;;12.00;99.90;;;;;;5076656;28;20050;-79
2022/04/30 16:26:29;;;;;;;3.85;2.35;;;12.00;99.90;;;;;;5082077;28;20408;-78
2022/04/30 16:28:56;;;;;;;5.18;2.00;;;12.10;99.90;;;;;;5089536;28;20072;-78
2022/04/30 16:31:22;;;;;;;4.72;1.98;;;12.00;99.90;;;;;;5085160;28;20044;-81
2022/04/30 16:33:48;;;;;;;4.40;2.10;;;12.40;99.90;;;;;;5072846;28;20059;-81
2022/04/30 16:36:13;;;;;;;3.38;2.15;;;12.00;99.90;;;;;;5071143;28;20037;-82
2022/04/30 16:38:39;;;;;;;4.45;2.72;;;11.60;99.90;;;;;;5069859;28;20471;-80
2022/04/30 16:41:05;;;;;;;5.43;2.53;;;11.90;99.90;;;;;;5070015;28;20042;-81
2022/04/30 16:43:34;;;;;;;7.65;3.17;;;11.90;99.90;;;;;;5070647;28;20041;-78
2022/04/30 16:45:59;;;;;;;3.95;2.30;;;11.90;99.90;;;;;;5070013;28;20049;-80
2022/04/30 16:48:28;;;;;;;4.88;3.25;;;11.90;99.90;;;;;;5070127;28;20054;-77
2022/04/30 16:53:38;;;;;;;6.57;2.95;;;12.00;99.90;;;;;;5070860;28;20049;-78
2022/04/30 16:58:49;;;;;;;6.95;2.95;;;12.00;99.90;;;;;;5071516;28;20051;-80
2022/04/30 17:01:14;;;;;;;6.10;2.83;;;11.90;99.90;;;;;;5069959;28;20051;-80
2022/04/30 17:03:40;;;;;;;4.60;2.65;;;11.90;99.90;;;;;;5071230;28;20036;-80
2022/04/30 17:06:06;;;;;;;5.95;2.70;;;11.70;99.90;;;;;;5070004;28;20046;-81
2022/04/30 17:08:34;;;;;;;3.28;2.20;;;11.70;99.90;;;;;;5070519;28;20123;-80
2022/04/30 17:11:00;;;;;;;6.57;2.80;;;11.60;99.90;;;;;;5053622;28;20052;-79
2022/04/30 17:13:26;;;;;;;5.75;2.80;;;11.60;99.90;;;;;;5070350;28;20040;-78
2022/04/30 17:15:52;;;;;;;4.93;2.17;;;11.60;99.90;;;;;;5069312;28;20041;-77
2022/04/30 17:18:18;;;;;;;4.78;2.42;;;11.60;99.90;;;;;;5070948;28;20048;-78
2022/04/30 17:20:44;;;;;;;7.68;2.60;;;11.60;99.90;;;;;;5070381;28;20032;-78
2022/04/30 17:23:09;;;;;;;4.03;2.75;;;11.60;99.90;;;;;;5069717;28;20468;-80
2022/04/30 17:25:35;;;;;;;7.20;2.28;;;11.60;99.90;;;;;;5068467;28;20048;-81
2022/04/30 17:28:02;;;;;;;6.53;2.65;;;11.60;99.90;;;;;;5069587;28;20075;-81
2022/04/30 17:30:28;;;;;;;6.22;2.30;;;11.50;99.90;;;;;;5070091;28;20052;-78
2022/04/30 17:38:22;;;;;;;8.38;2.20;;;11.30;99.90;;;;;;5075705;28;20044;-80
2022/04/30 17:40:48;;;;;;;4.82;2.13;;;11.30;99.90;;;;;;5072935;28;20044;-80
2022/04/30 17:43:14;;;;;;;3.47;2.17;;;12.40;99.90;;;;;;5070206;28;20051;-80
2022/04/30 17:45:41;;;;;;;2.88;2.05;;;11.10;99.90;;;;;;5070365;28;20530;-79
2022/04/30 17:48:12;;;;;;;4.03;2.17;;;11.10;99.90;;;;;;5073145;28;20051;-79
2022/04/30 17:50:39;;;;;;;5.63;2.30;;;11.00;99.90;;;;;;5069126;28;20423;-79
2022/04/30 17:53:06;;;;;;;4.07;2.50;;;11.00;99.90;;;;;;5070839;28;20045;-78
2022/04/30 17:55:34;;;;;;;5.07;2.85;;;12.20;99.90;;;;;;5068284;28;20044;-78
2022/04/30 17:58:02;;;;;;;6.88;2.20;;;10.80;99.90;;;;;;5071222;28;20407;-78
2022/04/30 18:00:28;;;;;;;3.25;2.10;;;10.70;99.90;;;;;;5073574;28;20071;-78
2022/04/30 18:02:53;;;;;;;4.85;2.30;;;10.70;99.90;;;;;;5077337;28;20052;-77
2022/04/30 18:05:19;;;;;;;3.63;2.10;;;10.60;99.90;;;;;;5076615;28;20037;-77
2022/04/30 18:07:45;;;;;;;3.72;2.60;;;10.50;99.90;;;;;;5073642;28;20313;-79
2022/04/30 18:10:11;;;;;;;4.20;2.30;;;10.40;99.90;;;;;;5053150;28;20056;-79
2022/04/30 18:12:37;;;;;;;3.92;2.25;;;10.50;99.90;;;;;;5068872;28;20036;-79
2022/04/30 18:15:05;;;;;;;3.45;2.05;;;10.40;99.90;;;;;;5070631;28;20051;-80
2022/04/30 18:17:30;;;;;;;6.72;2.15;;;10.40;99.90;;;;;;5067878;28;20048;-80
2022/04/30 18:19:56;;;;;;;8.65;2.85;;;10.30;99.90;;;;;;5071090;28;20060;-81
2022/04/30 18:22:23;;;;;;;4.05;3.13;;;10.20;99.90;;;;;;5069784;28;20044;-82
2022/04/30 18:24:49;;;;;;;8.43;2.85;;;10.20;99.90;;;;;;5069171;28;20159;-80
2022/04/30 18:27:14;;;;;;;5.05;3.40;;;10.30;99.90;;;;;;5069815;28;20504;-81
2022/04/30 18:29:40;;;;;;;8.27;3.15;;;10.10;99.90;;;;;;5070096;28;20060;-79
2022/04/30 18:32:07;;;;;;;4.53;2.83;;;10.00;99.90;;;;;;5071744;28;20044;-80
2022/04/30 18:34:39;;;;;;;5.60;3.15;;;10.00;99.90;;;;;;5054171;28;20044;-81
2022/04/30 18:37:05;;;;;;;5.05;3.00;;;10.00;99.90;;;;;;5071466;28;20537;-80
2022/04/30 18:39:31;;;;;;;5.13;3.55;;;10.00;99.90;;;;;;5069457;28;20104;-81
2022/04/30 18:41:57;;;;;;;7.03;3.65;;;9.90;99.90;;;;;;5069500;28;20132;-80
2022/04/30 18:44:26;;;;;;;3.45;2.67;;;11.00;99.90;;;;;;5072144;28;20075;-80
2022/04/30 18:46:53;;;;;;;5.30;3.30;;;9.80;99.90;;;;;;5070472;28;20049;-82
2022/04/30 18:49:22;;;;;;;6.78;3.65;;;9.80;99.90;;;;;;5071198;28;20057;-80
2022/04/30 18:51:48;;;;;;;6.55;3.30;;;11.20;99.90;;;;;;5053029;28;20082;-80
2022/04/30 19:02:28;;;;;;;6.95;3.45;;;9.60;99.90;;;;;;5070618;28;20080;-82
2022/04/30 19:04:54;;;;;;;5.47;3.47;;;10.60;99.90;;;;;;5069132;28;20040;-82
2022/04/30 19:07:21;;;;;;;8.85;4.57;;;9.50;99.90;;;;;;5070290;28;20098;-81
2022/04/30 19:09:47;;;;;;;5.85;3.47;;;9.40;99.90;;;;;;5069753;28;20045;-81
2022/04/30 19:12:16;;;;;;;5.35;3.53;;;9.30;99.90;;;;;;5069577;28;20407;-81
2022/04/30 19:14:46;;;;;;;10.73;4.13;;;9.30;99.90;;;;;;5052067;28;20040;-80
2022/04/30 19:17:14;;;;;;;5.20;3.35;;;9.20;99.90;;;;;;5069268;28;20125;-82
2022/04/30 19:19:40;;;;;;;7.28;4.30;;;9.90;99.90;;;;;;5069354;28;20565;-82
2022/04/30 19:22:05;;;;;;;4.95;3.80;;;9.10;99.90;;;;;;5069867;28;20114;-82
2022/04/30 19:24:31;;;;;;;7.50;4.15;;;9.10;99.90;;;;;;5069732;28;20397;-81
2022/04/30 19:26:59;;;;;;;7.57;4.07;;;9.00;99.90;;;;;;5070896;28;20052;-81
2022/04/30 19:29:26;;;;;;;7.38;4.55;;;10.30;99.90;;;;;;5073358;28;20056;-81
2022/04/30 19:31:52;;;;;;;7.70;4.32;;;9.00;99.90;;;;;;5088141;28;20040;-82
2022/04/30 19:34:19;;;;;;;7.97;4.30;;;8.90;99.90;;;;;;5067699;28;20059;-82
2022/04/30 19:36:46;;;;;;;5.75;4.18;;;9.90;99.90;;;;;;5070420;28;20037;-82
2022/04/30 19:39:11;;;;;;;5.70;4.50;;;8.80;99.90;;;;;;5072889;28;20045;-82
2022/04/30 19:41:37;;;;;;;8.00;4.45;;;8.80;99.90;;;;;;5069911;28;20075;-81
2022/04/30 19:44:04;;;;;;;5.95;3.95;;;8.80;99.90;;;;;;5071607;28;20084;-82
2022/04/30 19:46:29;;;;;;;4.68;3.65;;;8.70;99.90;;;;;;5071045;28;20047;-82
2022/04/30 19:48:55;;;;;;;5.45;3.78;;;8.70;99.90;;;;;;5070141;28;20056;-82
2022/04/30 19:51:21;;;;;;;9.43;4.60;;;8.60;99.90;;;;;;5070826;28;20551;-81
2022/04/30 19:53:47;;;;;;;8.85;4.32;;;8.60;99.90;;;;;;5071384;28;20063;-82
2022/04/30 19:56:14;;;;;;;7.00;4.60;;;8.50;99.90;;;;;;5070824;28;20036;-82
2022/04/30 19:58:40;;;;;;;7.20;4.28;;;9.80;99.90;;;;;;5069772;28;20051;-81
2022/04/30 20:01:06;;;;;;;6.53;4.40;;;8.40;99.90;;;;;;5069109;28;20557;-82
2022/04/30 20:03:32;;;;;;;8.38;4.55;;;9.80;99.90;;;;;;5070389;28;20048;-82
2022/04/30 20:05:57;;;;;;;9.73;4.78;;;8.30;99.90;;;;;;5053435;28;20037;-82
2022/04/30 20:08:23;;;;;;;7.18;4.53;;;8.20;99.90;;;;;;5070028;28;20508;-81
2022/04/30 20:19:02;;;;;;;13.88;7.50;;;7.90;99.90;;;;;;5071149;28;20480;-80
2022/04/30 20:21:28;;;;;;;29.65;13.13;;;7.80;99.90;;;;;;5069959;28;20072;-81
2022/04/30 20:23:54;;;;;;;41.45;17.27;;;7.70;99.90;;;;;;5069330;28;20048;-81
2022/04/30 20:26:20;;;;;;;60.90;24.63;;;7.70;99.90;;;;;;5070054;28;20054;-81
2022/04/30 20:28:46;;;;;;;56.70;25.55;;;8.50;99.90;;;;;;5070174;28;20078;-81
2022/04/30 20:36:41;;;;;;;14.73;9.27;;;7.50;99.90;;;;;;5070319;28;20094;-81
2022/04/30 20:39:10;;;;;;;18.95;9.52;;;7.40;99.90;;;;;;5069321;28;20044;-82
2022/04/30 20:41:37;;;;;;;19.50;9.10;;;7.30;99.90;;;;;;5069509;28;20044;-80
2022/04/30 20:44:07;;;;;;;14.80;9.60;;;7.30;99.90;;;;;;5070430;28;20040;-82
2022/04/30 20:46:38;;;;;;;12.27;8.25;;;7.20;99.90;;;;;;5069364;28;20048;-81
2022/04/30 20:49:06;;;;;;;10.15;6.78;;;7.80;99.90;;;;;;5070202;28;20135;-81
2022/04/30 20:51:33;;;;;;;13.18;6.18;;;7.80;99.90;;;;;;5069845;28;20072;-81
2022/04/30 20:54:02;;;;;;;10.57;6.18;;;7.10;99.90;;;;;;5071156;28;20091;-82
2022/04/30 20:56:28;;;;;;;10.18;6.25;;;7.00;99.90;;;;;;5071061;28;20049;-82
2022/04/30 20:58:55;;;;;;;12.02;6.78;;;7.00;99.90;;;;;;5077968;28;20048;-81
2022/04/30 21:01:21;;;;;;;8.27;6.10;;;7.40;99.90;;;;;;5082373;28;20036;-81
2022/04/30 21:03:47;;;;;;;12.10;6.22;;;6.80;99.90;;;;;;5090895;28;20048;-79
2022/04/30 21:06:13;;;;;;;13.98;7.32;;;6.80;99.90;;;;;;5080632;28;20083;-82
2022/04/30 21:08:39;;;;;;;14.48;8.40;;;7.40;99.90;;;;;;5067704;28;20147;-81
2022/04/30 21:11:06;;;;;;;12.85;8.40;;;6.30;99.90;;;;;;5069784;28;20048;-80
2022/04/30 21:13:32;;;;;;;14.90;7.78;;;6.60;99.90;;;;;;5068746;28;20040;-80
2022/04/30 21:15:58;;;;;;;9.82;6.88;;;8.10;99.90;;;;;;5068592;28;20454;-80
2022/04/30 21:18:24;;;;;;;9.60;6.75;;;7.70;99.90;;;;;;5069372;28;20071;-79
2022/04/30 21:20:50;;;;;;;10.27;6.25;;;6.40;99.90;;;;;;5068225;28;20121;-80
2022/04/30 21:23:16;;;;;;;9.48;6.18;;;6.40;99.90;;;;;;5069253;28;20120;-80
2022/04/30 21:25:47;;;;;;;9.23;5.80;;;6.60;99.90;;;;;;5066580;28;20036;-79
2022/04/30 21:28:13;;;;;;;10.35;5.57;;;7.70;99.90;;;;;;5068796;28;20384;-80
2022/04/30 21:30:45;;;;;;;6.50;5.18;;;6.30;99.90;;;;;;5068100;28;20125;-81
2022/04/30 21:33:13;;;;;;;11.57;7.03;;;6.20;99.90;;;;;;5067018;28;20044;-80
2022/04/30 21:35:40;;;;;;;9.43;6.50;;;7.40;99.90;;;;;;5068858;28;20068;-80
2022/04/30 21:38:06;;;;;;;10.05;5.72;;;7.50;99.90;;;;;;5068011;28;20044;-79
2022/04/30 21:43:20;;;;;;;8.90;6.50;;;6.90;99.90;;;;;;5067914;28;20052;-81
2022/04/30 21:45:46;;;;;;;11.57;7.13;;;7.10;99.90;;;;;;5066740;28;20105;-80
2022/04/30 21:48:12;;;;;;;9.85;7.55;;;5.80;99.90;;;;;;5068345;28;20129;-80
2022/04/30 21:50:38;;;;;;;9.60;6.72;;;6.30;99.90;;;;;;5066400;28;20071;-80
2022/04/30 21:53:05;;;;;;;10.73;6.80;;;7.00;99.90;;;;;;5068215;28;20048;-81
2022/04/30 22:01:10;;;;;;;11.55;7.22;;;5.60;99.90;;;;;;5067717;28;20048;-81
2022/04/30 22:03:38;;;;;;;9.10;6.28;;;5.70;99.90;;;;;;5067694;28;20053;-81
2022/04/30 22:06:05;;;;;;;8.27;6.30;;;5.90;99.90;;;;;;5068603;28;20396;-80
2022/04/30 22:08:34;;;;;;;9.70;6.60;;;6.70;99.90;;;;;;5067744;28;20126;-80
2022/04/30 22:11:00;;;;;;;8.27;6.18;;;6.90;99.90;;;;;;5068087;28;20154;-80
2022/04/30 22:13:27;;;;;;;9.70;6.97;;;4.60;99.90;;;;;;5066234;28;20044;-81
2022/04/30 22:15:54;;;;;;;9.20;6.25;;;5.40;99.90;;;;;;5067828;28;20111;-81
2022/04/30 22:18:20;;;;;;;9.20;6.35;;;5.30;99.90;;;;;;5066732;28;20041;-80
2022/04/30 22:20:47;;;;;;;11.60;7.00;;;5.30;99.90;;;;;;5067625;28;20182;-81
2022/04/30 22:23:13;;;;;;;13.20;8.00;;;6.20;99.90;;;;;;5068480;28;20047;-81
2022/04/30 22:25:39;;;;;;;15.18;8.13;;;5.20;99.90;;;;;;5067599;28;20482;-81
2022/04/30 22:28:05;;;;;;;9.82;7.22;;;5.20;99.90;;;;;;5069867;28;20048;-80
2022/04/30 22:30:31;;;;;;;14.90;10.07;;;5.20;99.90;;;;;;5069389;28;20233;-80
2022/04/30 22:32:57;;;;;;;17.88;11.48;;;6.40;99.90;;;;;;5081392;28;20048;-75
2022/04/30 22:35:23;;;;;;;18.45;11.02;;;6.30;99.90;;;;;;5086436;28;20123;-78
2022/04/30 22:37:49;;;;;;;15.15;9.90;;;5.10;99.90;;;;;;5070244;28;20052;-81
2022/04/30 22:42:59;;;;;;;13.70;9.68;;;5.10;99.90;;;;;;5067584;28;20139;-80
2022/04/30 22:45:25;;;;;;;17.05;9.82;;;5.10;99.90;;;;;;5049759;28;20075;-81
2022/04/30 22:47:51;;;;;;;16.27;10.95;;;6.50;99.90;;;;;;5067549;28;20090;-81
2022/04/30 22:50:20;;;;;;;17.50;9.82;;;6.20;99.90;;;;;;5067115;28;20389;-81
2022/04/30 22:52:47;;;;;;;16.08;10.32;;;6.20;99.90;;;;;;5068008;28;20218;-81
2022/04/30 22:55:13;;;;;;;15.30;10.45;;;6.40;99.90;;;;;;5065910;28;20054;-81
2022/04/30 22:57:39;;;;;;;18.33;10.82;;;4.90;99.90;;;;;;5067924;28;20047;-81
2022/04/30 23:00:06;;;;;;;15.85;10.57;;;4.80;99.90;;;;;;5067205;28;20037;-81
2022/04/30 23:02:36;;;;;;;14.43;9.00;;;4.80;99.90;;;;;;5067335;28;20051;-82
2022/04/30 23:05:06;;;;;;;15.57;9.43;;;5.10;99.90;;;;;;5067410;28;20044;-81
2022/04/30 23:07:31;;;;;;;14.27;9.88;;;4.70;99.90;;;;;;5067532;28;20037;-79
2022/04/30 23:09:57;;;;;;;19.50;11.55;;;4.70;99.90;;;;;;5067631;28;20519;-81
2022/04/30 23:12:23;;;;;;;16.33;10.23;;;5.30;99.90;;;;;;5070433;28;20040;-80
2022/04/30 23:14:49;;;;;;;16.23;10.90;;;4.50;99.90;;;;;;5071638;28;20055;-80
2022/04/30 23:17:14;;;;;;;15.40;10.95;;;4.60;99.90;;;;;;5069696;28;20036;-79
2022/04/30 23:19:40;;;;;;;15.00;10.35;;;3.40;99.90;;;;;;5071425;28;20067;-80
2022/04/30 23:22:06;;;;;;;21.38;9.93;;;4.50;99.90;;;;;;5070670;28;20047;-80
2022/04/30 23:24:33;;;;;;;19.73;9.82;;;4.50;99.90;;;;;;5069915;28;20075;-80
2022/04/30 23:26:59;;;;;;;13.75;10.15;;;5.40;99.90;;;;;;5072675;28;20103;-81
2022/04/30 23:29:25;;;;;;;15.55;11.52;;;4.50;99.90;;;;;;5077248;28;20041;-80
2022/04/30 23:31:54;;;;;;;21.98;10.95;;;4.70;99.90;;;;;;5075047;28;20079;-80
2022/04/30 23:34:19;;;;;;;16.83;10.15;;;4.90;99.90;;;;;;5070973;28;20083;-80
2022/04/30 23:36:46;;;;;;;16.23;10.70;;;4.40;99.90;;;;;;5071707;28;20475;-80
2022/04/30 23:39:12;;;;;;;16.83;9.73;;;4.50;99.90;;;;;;5069773;28;20136;-81
2022/04/30 23:41:37;;;;;;;15.45;10.05;;;5.20;99.90;;;;;;5071800;28;20045;-81
2022/04/30 23:44:05;;;;;;;15.57;10.40;;;4.30;99.90;;;;;;5072215;28;20110;-81
2022/04/30 23:46:32;;;;;;;15.55;11.23;;;5.20;99.90;;;;;;5071383;28;20120;-81
2022/04/30 23:48:58;;;;;;;14.40;9.75;;;4.20;99.90;;;;;;5071730;28;20045;-80
2022/04/30 23:51:25;;;;;;;18.33;11.52;;;4.20;99.90;;;;;;5071852;28;20385;-81
2022/04/30 23:53:51;;;;;;;16.25;10.85;;;4.20;99.90;;;;;;5072227;28;20045;-80
2022/04/30 23:56:17;;;;;;;17.27;11.45;;;5.30;99.90;;;;;;5072220;28;20123;-81
2022/04/30 23:58:43;;;;;;;17.00;10.38;;;4.10;99.90;;;;;;5076167;28;20124;-80
